sensor_id;sensor_type;location;lat;lon;timestamp;temperature;humidity
15834;DHT22;8017;50.812;4.934;2022-10-13T00:02:26;11.60;99.90
15834;DHT22;8017;50.812;4.934;2022-10-13T00:05:30;11.50;99.90
15834;DHT22;8017;50.812;4.934;2022-10-13T00:08:32;11.50;99.90
15834;DHT22;8017;50.812;4.934;2022-10-13T00:11:34;11.50;99.90
15834;DHT22;8017;50.812;4.934;2022-10-13T00:14:36;11.40;99.90
15834;DHT22;8017;50.812;4.934;2022-10-13T00:17:37;11.40;99.90
15834;DHT22;8017;50.812;4.934;2022-10-13T00:20:44;11.40;99.90
15834;DHT22;8017;50.812;4.934;2022-10-13T00:23:46;11.30;99.90
15834;DHT22;8017;50.812;4.934;2022-10-13T00:26:49;11.30;99.90
15834;DHT22;8017;50.812;4.934;2022-10-13T00:29:51;11.30;99.90
15834;DHT22;8017;50.812;4.934;2022-10-13T00:32:53;11.30;99.90
15834;DHT22;8017;50.812;4.934;2022-10-13T00:35:57;11.50;99.90
15834;DHT22;8017;50.812;4.934;2022-10-13T00:38:58;11.60;99.90
15834;DHT22;8017;50.812;4.934;2022-10-13T00:42:00;11.80;99.90
15834;DHT22;8017;50.812;4.934;2022-10-13T00:45:10;11.80;99.90
15834;DHT22;8017;50.812;4.934;2022-10-13T00:48:15;11.70;99.90
15834;DHT22;8017;50.812;4.934;2022-10-13T00:51:23;11.60;99.90
15834;DHT22;8017;50.812;4.934;2022-10-13T00:54:26;11.50;99.90
15834;DHT22;8017;50.812;4.934;2022-10-13T00:57:29;11.40;99.90
15834;DHT22;8017;50.812;4.934;2022-10-13T01:00:32;11.50;99.90
15834;DHT22;8017;50.812;4.934;2022-10-13T01:03:35;11.50;99.90
15834;DHT22;8017;50.812;4.934;2022-10-13T01:06:39;11.40;99.90
15834;DHT22;8017;50.812;4.934;2022-10-13T01:09:41;11.50;99.90
15834;DHT22;8017;50.812;4.934;2022-10-13T01:12:51;11.50;99.90
15834;DHT22;8017;50.812;4.934;2022-10-13T01:16:02;11.50;99.90
15834;DHT22;8017;50.812;4.934;2022-10-13T01:19:19;11.60;99.90
15834;DHT22;8017;50.812;4.934;2022-10-13T01:22:38;11.50;99.90
15834;DHT22;8017;50.812;4.934;2022-10-13T01:26:08;11.50;99.90
15834;DHT22;8017;50.812;4.934;2022-10-13T01:29:31;11.50;99.90
15834;DHT22;8017;50.812;4.934;2022-10-13T01:32:50;11.50;99.90
15834;DHT22;8017;50.812;4.934;2022-10-13T01:36:02;11.60;99.90
15834;DHT22;8017;50.812;4.934;2022-10-13T01:39:07;11.60;99.90
15834;DHT22;8017;50.812;4.934;2022-10-13T01:42:15;11.60;99.90
15834;DHT22;8017;50.812;4.934;2022-10-13T01:45:22;11.60;99.90
15834;DHT22;8017;50.812;4.934;2022-10-13T01:48:27;11.60;99.90
15834;DHT22;8017;50.812;4.934;2022-10-13T01:51:30;11.70;99.90
15834;DHT22;8017;50.812;4.934;2022-10-13T01:54:33;11.90;99.90
15834;DHT22;8017;50.812;4.934;2022-10-13T01:57:37;12.00;99.90
15834;DHT22;8017;50.812;4.934;2022-10-13T02:00:45;12.00;99.90
15834;DHT22;8017;50.812;4.934;2022-10-13T02:04:00;12.10;99.90
15834;DHT22;8017;50.812;4.934;2022-10-13T02:07:07;12.00;99.90
15834;DHT22;8017;50.812;4.934;2022-10-13T02:10:14;12.00;99.90
15834;DHT22;8017;50.812;4.934;2022-10-13T02:13:21;12.00;99.90
15834;DHT22;8017;50.812;4.934;2022-10-13T02:16:28;11.90;99.90
15834;DHT22;8017;50.812;4.934;2022-10-13T02:19:35;11.90;99.90
15834;DHT22;8017;50.812;4.934;2022-10-13T02:22:41;11.90;99.90
15834;DHT22;8017;50.812;4.934;2022-10-13T02:25:44;11.80;99.90
15834;DHT22;8017;50.812;4.934;2022-10-13T02:28:47;11.70;99.90
15834;DHT22;8017;50.812;4.934;2022-10-13T02:31:49;11.70;99.90
15834;DHT22;8017;50.812;4.934;2022-10-13T02:34:55;11.60;99.90
15834;DHT22;8017;50.812;4.934;2022-10-13T02:37:58;11.60;99.90
15834;DHT22;8017;50.812;4.934;2022-10-13T02:41:00;11.70;99.90
15834;DHT22;8017;50.812;4.934;2022-10-13T02:44:02;11.60;99.90
15834;DHT22;8017;50.812;4.934;2022-10-13T02:47:04;11.60;99.90
15834;DHT22;8017;50.812;4.934;2022-10-13T02:50:08;11.60;99.90
15834;DHT22;8017;50.812;4.934;2022-10-13T02:53:10;11.60;99.90
15834;DHT22;8017;50.812;4.934;2022-10-13T02:56:12;11.60;99.90
15834;DHT22;8017;50.812;4.934;2022-10-13T02:59:14;11.60;99.90
15834;DHT22;8017;50.812;4.934;2022-10-13T03:02:16;11.60;99.90
15834;DHT22;8017;50.812;4.934;2022-10-13T03:05:20;11.60;99.90
15834;DHT22;8017;50.812;4.934;2022-10-13T03:08:21;11.60;99.90
15834;DHT22;8017;50.812;4.934;2022-10-13T03:11:24;11.60;99.90
15834;DHT22;8017;50.812;4.934;2022-10-13T03:14:26;11.60;99.90
15834;DHT22;8017;50.812;4.934;2022-10-13T03:17:28;11.50;99.90
15834;DHT22;8017;50.812;4.934;2022-10-13T03:20:31;11.50;99.90
15834;DHT22;8017;50.812;4.934;2022-10-13T03:23:33;11.50;99.90
15834;DHT22;8017;50.812;4.934;2022-10-13T03:26:35;11.60;99.90
15834;DHT22;8017;50.812;4.934;2022-10-13T03:29:37;11.60;99.90
15834;DHT22;8017;50.812;4.934;2022-10-13T03:32:38;11.60;99.90
15834;DHT22;8017;50.812;4.934;2022-10-13T03:35:42;11.50;99.90
15834;DHT22;8017;50.812;4.934;2022-10-13T03:38:43;11.40;99.90
15834;DHT22;8017;50.812;4.934;2022-10-13T03:41:45;11.30;99.90
15834;DHT22;8017;50.812;4.934;2022-10-13T03:44:47;11.30;99.90
15834;DHT22;8017;50.812;4.934;2022-10-13T03:47:49;11.30;99.90
15834;DHT22;8017;50.812;4.934;2022-10-13T03:50:54;11.30;99.90
15834;DHT22;8017;50.812;4.934;2022-10-13T03:53:56;11.30;99.90
15834;DHT22;8017;50.812;4.934;2022-10-13T03:56:58;11.30;99.90
15834;DHT22;8017;50.812;4.934;2022-10-13T04:00:00;11.30;99.90
15834;DHT22;8017;50.812;4.934;2022-10-13T04:03:03;11.40;99.90
15834;DHT22;8017;50.812;4.934;2022-10-13T04:06:06;11.40;99.90
15834;DHT22;8017;50.812;4.934;2022-10-13T04:09:08;11.40;99.90
15834;DHT22;8017;50.812;4.934;2022-10-13T04:12:10;11.50;99.90
15834;DHT22;8017;50.812;4.934;2022-10-13T04:15:12;11.50;99.90
15834;DHT22;8017;50.812;4.934;2022-10-13T04:18:14;11.50;99.90
15834;DHT22;8017;50.812;4.934;2022-10-13T04:21:17;11.50;99.90
15834;DHT22;8017;50.812;4.934;2022-10-13T04:24:19;11.40;99.90
15834;DHT22;8017;50.812;4.934;2022-10-13T04:27:21;11.40;99.90
15834;DHT22;8017;50.812;4.934;2022-10-13T04:30:23;11.40;99.90
15834;DHT22;8017;50.812;4.934;2022-10-13T04:33:25;11.40;99.90
15834;DHT22;8017;50.812;4.934;2022-10-13T04:36:28;11.50;99.90
15834;DHT22;8017;50.812;4.934;2022-10-13T04:39:30;11.50;99.90
15834;DHT22;8017;50.812;4.934;2022-10-13T04:42:33;11.50;99.90
15834;DHT22;8017;50.812;4.934;2022-10-13T04:45:35;11.60;99.90
15834;DHT22;8017;50.812;4.934;2022-10-13T04:48:37;11.70;99.90
15834;DHT22;8017;50.812;4.934;2022-10-13T04:51:40;11.80;99.90
15834;DHT22;8017;50.812;4.934;2022-10-13T04:54:42;11.80;99.90
15834;DHT22;8017;50.812;4.934;2022-10-13T04:57:44;11.90;99.90
15834;DHT22;8017;50.812;4.934;2022-10-13T05:00:45;11.80;99.90
15834;DHT22;8017;50.812;4.934;2022-10-13T05:03:50;11.70;99.90
15834;DHT22;8017;50.812;4.934;2022-10-13T05:06:53;11.60;99.90
15834;DHT22;8017;50.812;4.934;2022-10-13T05:09:55;11.80;99.90
15834;DHT22;8017;50.812;4.934;2022-10-13T05:12:57;11.80;99.90
15834;DHT22;8017;50.812;4.934;2022-10-13T05:15:59;11.70;99.90
15834;DHT22;8017;50.812;4.934;2022-10-13T05:19:01;11.80;99.90
15834;DHT22;8017;50.812;4.934;2022-10-13T05:22:04;11.80;99.90
15834;DHT22;8017;50.812;4.934;2022-10-13T05:25:06;11.80;99.90
15834;DHT22;8017;50.812;4.934;2022-10-13T05:28:08;11.80;99.90
15834;DHT22;8017;50.812;4.934;2022-10-13T05:31:11;11.90;99.90
15834;DHT22;8017;50.812;4.934;2022-10-13T05:34:13;11.70;99.90
15834;DHT22;8017;50.812;4.934;2022-10-13T05:37:17;11.70;99.90
15834;DHT22;8017;50.812;4.934;2022-10-13T05:40:19;11.70;99.90
15834;DHT22;8017;50.812;4.934;2022-10-13T05:43:21;11.60;99.90
15834;DHT22;8017;50.812;4.934;2022-10-13T05:46:23;11.60;99.90
15834;DHT22;8017;50.812;4.934;2022-10-13T05:49:25;11.60;99.90
15834;DHT22;8017;50.812;4.934;2022-10-13T05:52:31;11.60;99.90
15834;DHT22;8017;50.812;4.934;2022-10-13T05:55:33;11.70;99.90
15834;DHT22;8017;50.812;4.934;2022-10-13T05:58:38;11.80;99.90
15834;DHT22;8017;50.812;4.934;2022-10-13T06:01:42;11.90;99.90
15834;DHT22;8017;50.812;4.934;2022-10-13T06:04:47;11.80;99.90
15834;DHT22;8017;50.812;4.934;2022-10-13T06:07:51;11.80;99.90
15834;DHT22;8017;50.812;4.934;2022-10-13T06:10:54;11.90;99.90
15834;DHT22;8017;50.812;4.934;2022-10-13T06:13:56;11.90;99.90
15834;DHT22;8017;50.812;4.934;2022-10-13T06:16:58;11.90;99.90
15834;DHT22;8017;50.812;4.934;2022-10-13T06:20:00;11.90;99.90
15834;DHT22;8017;50.812;4.934;2022-10-13T06:23:03;11.80;99.90
15834;DHT22;8017;50.812;4.934;2022-10-13T06:26:06;11.80;99.90
15834;DHT22;8017;50.812;4.934;2022-10-13T06:29:08;11.80;99.90
15834;DHT22;8017;50.812;4.934;2022-10-13T06:32:10;11.80;99.90
15834;DHT22;8017;50.812;4.934;2022-10-13T06:35:12;11.90;99.90
15834;DHT22;8017;50.812;4.934;2022-10-13T06:38:15;11.90;99.90
15834;DHT22;8017;50.812;4.934;2022-10-13T06:41:18;12.00;99.90
15834;DHT22;8017;50.812;4.934;2022-10-13T06:44:20;12.10;99.90
15834;DHT22;8017;50.812;4.934;2022-10-13T06:47:22;12.00;99.90
15834;DHT22;8017;50.812;4.934;2022-10-13T06:50:24;12.20;99.90
15834;DHT22;8017;50.812;4.934;2022-10-13T06:53:27;12.20;99.90
15834;DHT22;8017;50.812;4.934;2022-10-13T06:56:29;12.40;99.90
15834;DHT22;8017;50.812;4.934;2022-10-13T06:59:31;12.50;99.90
15834;DHT22;8017;50.812;4.934;2022-10-13T07:02:34;12.60;99.90
15834;DHT22;8017;50.812;4.934;2022-10-13T07:05:36;12.70;99.90
15834;DHT22;8017;50.812;4.934;2022-10-13T07:08:40;12.80;99.90
15834;DHT22;8017;50.812;4.934;2022-10-13T07:11:43;12.80;99.90
15834;DHT22;8017;50.812;4.934;2022-10-13T07:14:45;12.90;99.90
15834;DHT22;8017;50.812;4.934;2022-10-13T07:17:47;12.90;99.90
15834;DHT22;8017;50.812;4.934;2022-10-13T07:20:51;12.90;99.90
15834;DHT22;8017;50.812;4.934;2022-10-13T07:23:54;13.00;99.90
15834;DHT22;8017;50.812;4.934;2022-10-13T07:26:56;13.20;99.90
15834;DHT22;8017;50.812;4.934;2022-10-13T07:29:58;13.20;99.90
15834;DHT22;8017;50.812;4.934;2022-10-13T07:33:00;13.40;99.90
15834;DHT22;8017;50.812;4.934;2022-10-13T07:36:02;13.40;99.90
15834;DHT22;8017;50.812;4.934;2022-10-13T07:39:06;13.50;99.90
15834;DHT22;8017;50.812;4.934;2022-10-13T07:42:08;13.60;99.90
15834;DHT22;8017;50.812;4.934;2022-10-13T07:45:10;13.60;99.90
15834;DHT22;8017;50.812;4.934;2022-10-13T07:48:12;13.70;99.90
15834;DHT22;8017;50.812;4.934;2022-10-13T07:51:14;13.70;99.90
15834;DHT22;8017;50.812;4.934;2022-10-13T07:54:17;13.70;99.90
15834;DHT22;8017;50.812;4.934;2022-10-13T07:57:19;13.70;99.90
15834;DHT22;8017;50.812;4.934;2022-10-13T08:00:21;13.70;99.90
15834;DHT22;8017;50.812;4.934;2022-10-13T08:03:23;13.80;99.90
15834;DHT22;8017;50.812;4.934;2022-10-13T08:06:25;13.80;99.90
15834;DHT22;8017;50.812;4.934;2022-10-13T08:09:29;14.00;99.90
15834;DHT22;8017;50.812;4.934;2022-10-13T08:12:30;14.20;99.90
15834;DHT22;8017;50.812;4.934;2022-10-13T08:15:32;14.10;99.90
15834;DHT22;8017;50.812;4.934;2022-10-13T08:18:34;14.20;99.90
15834;DHT22;8017;50.812;4.934;2022-10-13T08:21:36;14.00;99.90
15834;DHT22;8017;50.812;4.934;2022-10-13T08:24:40;14.00;99.90
15834;DHT22;8017;50.812;4.934;2022-10-13T08:27:41;14.10;99.90
15834;DHT22;8017;50.812;4.934;2022-10-13T08:30:43;14.10;99.90
15834;DHT22;8017;50.812;4.934;2022-10-13T08:33:45;14.10;99.90
15834;DHT22;8017;50.812;4.934;2022-10-13T08:36:48;14.20;99.90
15834;DHT22;8017;50.812;4.934;2022-10-13T08:39:55;14.00;99.90
15834;DHT22;8017;50.812;4.934;2022-10-13T08:42:57;14.10;99.90
15834;DHT22;8017;50.812;4.934;2022-10-13T08:45:59;14.10;99.90
15834;DHT22;8017;50.812;4.934;2022-10-13T08:49:01;14.10;99.90
15834;DHT22;8017;50.812;4.934;2022-10-13T08:52:04;14.10;99.90
15834;DHT22;8017;50.812;4.934;2022-10-13T08:55:15;14.00;99.90
15834;DHT22;8017;50.812;4.934;2022-10-13T08:58:20;14.00;99.90
15834;DHT22;8017;50.812;4.934;2022-10-13T09:01:26;14.00;99.90
15834;DHT22;8017;50.812;4.934;2022-10-13T09:04:31;14.00;99.90
15834;DHT22;8017;50.812;4.934;2022-10-13T09:07:36;14.00;99.90
15834;DHT22;8017;50.812;4.934;2022-10-13T09:10:47;14.10;99.90
15834;DHT22;8017;50.812;4.934;2022-10-13T09:13:53;14.30;99.90
15834;DHT22;8017;50.812;4.934;2022-10-13T09:17:11;14.30;99.90
15834;DHT22;8017;50.812;4.934;2022-10-13T09:20:19;14.30;99.90
15834;DHT22;8017;50.812;4.934;2022-10-13T09:23:24;14.30;99.90
15834;DHT22;8017;50.812;4.934;2022-10-13T09:26:28;14.20;99.90
15834;DHT22;8017;50.812;4.934;2022-10-13T09:29:30;14.30;99.90
15834;DHT22;8017;50.812;4.934;2022-10-13T09:32:34;14.40;99.90
15834;DHT22;8017;50.812;4.934;2022-10-13T09:35:38;14.50;99.90
15834;DHT22;8017;50.812;4.934;2022-10-13T09:38:43;14.70;99.90
15834;DHT22;8017;50.812;4.934;2022-10-13T09:41:46;15.00;99.90
15834;DHT22;8017;50.812;4.934;2022-10-13T09:44:55;15.20;99.90
15834;DHT22;8017;50.812;4.934;2022-10-13T09:48:03;15.40;99.90
15834;DHT22;8017;50.812;4.934;2022-10-13T09:51:29;15.60;99.90
15834;DHT22;8017;50.812;4.934;2022-10-13T09:54:43;15.70;99.90
15834;DHT22;8017;50.812;4.934;2022-10-13T09:57:48;15.60;99.90
15834;DHT22;8017;50.812;4.934;2022-10-13T10:00:53;15.60;99.90
15834;DHT22;8017;50.812;4.934;2022-10-13T10:03:56;15.50;99.90
15834;DHT22;8017;50.812;4.934;2022-10-13T10:06:58;15.50;99.90
15834;DHT22;8017;50.812;4.934;2022-10-13T10:10:04;15.50;99.90
15834;DHT22;8017;50.812;4.934;2022-10-13T10:13:10;15.30;99.90
15834;DHT22;8017;50.812;4.934;2022-10-13T10:16:18;15.30;99.90
15834;DHT22;8017;50.812;4.934;2022-10-13T10:19:41;15.20;99.90
15834;DHT22;8017;50.812;4.934;2022-10-13T10:22:51;15.00;99.90
15834;DHT22;8017;50.812;4.934;2022-10-13T10:25:57;15.20;99.90
15834;DHT22;8017;50.812;4.934;2022-10-13T10:29:18;15.50;99.90
15834;DHT22;8017;50.812;4.934;2022-10-13T10:32:28;15.80;99.90
15834;DHT22;8017;50.812;4.934;2022-10-13T10:35:40;16.20;99.90
15834;DHT22;8017;50.812;4.934;2022-10-13T10:38:49;16.30;99.90
15834;DHT22;8017;50.812;4.934;2022-10-13T10:41:56;16.30;99.90
15834;DHT22;8017;50.812;4.934;2022-10-13T10:45:13;16.50;99.90
15834;DHT22;8017;50.812;4.934;2022-10-13T10:48:19;16.60;99.90
15834;DHT22;8017;50.812;4.934;2022-10-13T10:51:28;16.80;99.90
15834;DHT22;8017;50.812;4.934;2022-10-13T10:54:38;16.90;99.90
15834;DHT22;8017;50.812;4.934;2022-10-13T10:57:49;16.80;99.90
15834;DHT22;8017;50.812;4.934;2022-10-13T11:01:01;16.80;99.90
15834;DHT22;8017;50.812;4.934;2022-10-13T11:04:33;16.80;99.90
15834;DHT22;8017;50.812;4.934;2022-10-13T11:07:57;16.80;99.90
15834;DHT22;8017;50.812;4.934;2022-10-13T11:11:34;16.80;99.90
15834;DHT22;8017;50.812;4.934;2022-10-13T11:14:36;16.70;99.90
15834;DHT22;8017;50.812;4.934;2022-10-13T11:17:40;16.80;99.90
15834;DHT22;8017;50.812;4.934;2022-10-13T11:20:57;17.00;99.90
15834;DHT22;8017;50.812;4.934;2022-10-13T11:23:59;17.30;99.90
15834;DHT22;8017;50.812;4.934;2022-10-13T11:27:18;17.50;99.90
15834;DHT22;8017;50.812;4.934;2022-10-13T11:30:42;17.60;99.90
15834;DHT22;8017;50.812;4.934;2022-10-13T11:33:53;18.10;99.90
15834;DHT22;8017;50.812;4.934;2022-10-13T11:36:57;18.20;99.90
15834;DHT22;8017;50.812;4.934;2022-10-13T11:40:13;18.30;99.90
15834;DHT22;8017;50.812;4.934;2022-10-13T11:46:59;18.20;99.90
15834;DHT22;8017;50.812;4.934;2022-10-13T11:50:16;18.00;99.90
15834;DHT22;8017;50.812;4.934;2022-10-13T11:53:22;17.80;99.90
15834;DHT22;8017;50.812;4.934;2022-10-13T11:56:32;17.40;99.90
15834;DHT22;8017;50.812;4.934;2022-10-13T11:59:35;17.20;99.90
15834;DHT22;8017;50.812;4.934;2022-10-13T12:02:47;17.10;99.90
15834;DHT22;8017;50.812;4.934;2022-10-13T12:05:51;16.90;99.90
15834;DHT22;8017;50.812;4.934;2022-10-13T12:08:53;16.80;99.90
15834;DHT22;8017;50.812;4.934;2022-10-13T12:11:57;16.80;99.90
15834;DHT22;8017;50.812;4.934;2022-10-13T12:15:00;16.30;99.90
15834;DHT22;8017;50.812;4.934;2022-10-13T12:18:15;16.00;99.90
15834;DHT22;8017;50.812;4.934;2022-10-13T12:21:21;15.70;99.90
15834;DHT22;8017;50.812;4.934;2022-10-13T12:24:26;15.40;99.90
15834;DHT22;8017;50.812;4.934;2022-10-13T12:27:30;15.50;99.90
15834;DHT22;8017;50.812;4.934;2022-10-13T12:30:34;15.70;99.90
15834;DHT22;8017;50.812;4.934;2022-10-13T12:33:36;15.90;99.90
15834;DHT22;8017;50.812;4.934;2022-10-13T12:36:39;16.00;99.90
15834;DHT22;8017;50.812;4.934;2022-10-13T12:39:43;16.10;99.90
15834;DHT22;8017;50.812;4.934;2022-10-13T12:42:47;16.10;99.90
15834;DHT22;8017;50.812;4.934;2022-10-13T12:45:49;16.00;99.90
15834;DHT22;8017;50.812;4.934;2022-10-13T12:48:51;16.00;99.90
15834;DHT22;8017;50.812;4.934;2022-10-13T12:51:57;16.20;99.90
15834;DHT22;8017;50.812;4.934;2022-10-13T12:55:13;16.50;99.90
15834;DHT22;8017;50.812;4.934;2022-10-13T12:58:19;16.80;99.90
15834;DHT22;8017;50.812;4.934;2022-10-13T13:01:28;16.90;99.90
15834;DHT22;8017;50.812;4.934;2022-10-13T13:04:42;16.80;99.90
15834;DHT22;8017;50.812;4.934;2022-10-13T13:07:51;17.00;99.90
15834;DHT22;8017;50.812;4.934;2022-10-13T13:10:54;17.00;99.90
15834;DHT22;8017;50.812;4.934;2022-10-13T13:14:29;16.90;99.90
15834;DHT22;8017;50.812;4.934;2022-10-13T13:17:34;16.80;99.90
15834;DHT22;8017;50.812;4.934;2022-10-13T13:20:35;16.80;99.90
15834;DHT22;8017;50.812;4.934;2022-10-13T13:23:39;16.90;99.90
15834;DHT22;8017;50.812;4.934;2022-10-13T13:26:44;16.90;99.90
15834;DHT22;8017;50.812;4.934;2022-10-13T13:29:46;16.90;99.90
15834;DHT22;8017;50.812;4.934;2022-10-13T13:32:49;16.90;99.90
15834;DHT22;8017;50.812;4.934;2022-10-13T13:35:51;16.90;99.90
15834;DHT22;8017;50.812;4.934;2022-10-13T13:38:54;17.00;99.90
15834;DHT22;8017;50.812;4.934;2022-10-13T13:41:56;16.90;99.90
15834;DHT22;8017;50.812;4.934;2022-10-13T13:44:58;16.80;99.90
15834;DHT22;8017;50.812;4.934;2022-10-13T13:48:00;16.70;99.90
15834;DHT22;8017;50.812;4.934;2022-10-13T13:51:02;16.60;99.90
15834;DHT22;8017;50.812;4.934;2022-10-13T13:54:06;16.50;99.90
15834;DHT22;8017;50.812;4.934;2022-10-13T13:57:08;16.50;99.90
15834;DHT22;8017;50.812;4.934;2022-10-13T14:00:12;16.50;99.90
15834;DHT22;8017;50.812;4.934;2022-10-13T14:03:15;16.50;99.90
15834;DHT22;8017;50.812;4.934;2022-10-13T14:06:18;16.50;99.90
15834;DHT22;8017;50.812;4.934;2022-10-13T14:09:21;16.50;99.90
15834;DHT22;8017;50.812;4.934;2022-10-13T14:12:23;16.50;99.90
15834;DHT22;8017;50.812;4.934;2022-10-13T14:15:25;16.50;99.90
15834;DHT22;8017;50.812;4.934;2022-10-13T14:18:28;16.60;99.90
15834;DHT22;8017;50.812;4.934;2022-10-13T14:21:31;16.70;99.90
15834;DHT22;8017;50.812;4.934;2022-10-13T14:24:34;16.80;99.90
15834;DHT22;8017;50.812;4.934;2022-10-13T14:27:36;16.90;99.90
15834;DHT22;8017;50.812;4.934;2022-10-13T14:30:38;16.90;99.90
15834;DHT22;8017;50.812;4.934;2022-10-13T14:33:40;16.70;99.90
15834;DHT22;8017;50.812;4.934;2022-10-13T14:36:42;16.40;99.90
15834;DHT22;8017;50.812;4.934;2022-10-13T14:39:46;16.20;99.90
15834;DHT22;8017;50.812;4.934;2022-10-13T14:42:47;16.10;99.90
15834;DHT22;8017;50.812;4.934;2022-10-13T14:45:49;16.10;99.90
15834;DHT22;8017;50.812;4.934;2022-10-13T14:48:51;16.00;99.90
15834;DHT22;8017;50.812;4.934;2022-10-13T14:51:53;16.00;99.90
15834;DHT22;8017;50.812;4.934;2022-10-13T14:54:56;15.90;99.90
15834;DHT22;8017;50.812;4.934;2022-10-13T14:57:58;15.70;99.90
15834;DHT22;8017;50.812;4.934;2022-10-13T15:01:00;15.70;99.90
15834;DHT22;8017;50.812;4.934;2022-10-13T15:04:03;15.60;99.90
15834;DHT22;8017;50.812;4.934;2022-10-13T15:07:04;15.60;99.90
15834;DHT22;8017;50.812;4.934;2022-10-13T15:10:08;15.50;99.90
15834;DHT22;8017;50.812;4.934;2022-10-13T15:13:10;15.40;99.90
15834;DHT22;8017;50.812;4.934;2022-10-13T15:16:14;15.40;99.90
15834;DHT22;8017;50.812;4.934;2022-10-13T15:19:17;15.40;99.90
15834;DHT22;8017;50.812;4.934;2022-10-13T15:22:19;15.30;99.90
15834;DHT22;8017;50.812;4.934;2022-10-13T15:25:23;15.30;99.90
15834;DHT22;8017;50.812;4.934;2022-10-13T15:28:26;15.30;99.90
15834;DHT22;8017;50.812;4.934;2022-10-13T15:31:28;15.20;99.90
15834;DHT22;8017;50.812;4.934;2022-10-13T15:34:30;15.20;99.90
15834;DHT22;8017;50.812;4.934;2022-10-13T15:37:32;15.10;99.90
15834;DHT22;8017;50.812;4.934;2022-10-13T15:40:39;15.10;99.90
15834;DHT22;8017;50.812;4.934;2022-10-13T15:43:41;15.00;99.90
15834;DHT22;8017;50.812;4.934;2022-10-13T15:46:43;14.90;99.90
15834;DHT22;8017;50.812;4.934;2022-10-13T15:49:45;14.80;99.90
15834;DHT22;8017;50.812;4.934;2022-10-13T15:52:47;14.70;99.90
15834;DHT22;8017;50.812;4.934;2022-10-13T15:55:50;14.60;99.90
15834;DHT22;8017;50.812;4.934;2022-10-13T15:58:52;14.60;99.90
15834;DHT22;8017;50.812;4.934;2022-10-13T16:01:54;14.60;99.90
15834;DHT22;8017;50.812;4.934;2022-10-13T16:04:55;14.60;99.90
15834;DHT22;8017;50.812;4.934;2022-10-13T16:08:01;14.60;99.90
15834;DHT22;8017;50.812;4.934;2022-10-13T16:11:08;14.50;99.90
15834;DHT22;8017;50.812;4.934;2022-10-13T16:14:10;14.50;99.90
15834;DHT22;8017;50.812;4.934;2022-10-13T16:17:12;14.60;99.90
15834;DHT22;8017;50.812;4.934;2022-10-13T16:20:14;14.60;99.90
15834;DHT22;8017;50.812;4.934;2022-10-13T16:23:15;14.50;99.90
15834;DHT22;8017;50.812;4.934;2022-10-13T16:26:19;14.50;99.90
15834;DHT22;8017;50.812;4.934;2022-10-13T16:29:22;14.50;99.90
15834;DHT22;8017;50.812;4.934;2022-10-13T16:32:24;14.40;99.90
15834;DHT22;8017;50.812;4.934;2022-10-13T16:35:26;14.40;99.90
15834;DHT22;8017;50.812;4.934;2022-10-13T16:38:28;14.40;99.90
15834;DHT22;8017;50.812;4.934;2022-10-13T16:41:31;14.40;99.90
15834;DHT22;8017;50.812;4.934;2022-10-13T16:44:33;14.40;99.90
15834;DHT22;8017;50.812;4.934;2022-10-13T16:47:35;14.40;99.90
15834;DHT22;8017;50.812;4.934;2022-10-13T16:50:37;14.50;99.90
15834;DHT22;8017;50.812;4.934;2022-10-13T16:53:39;14.40;99.90
15834;DHT22;8017;50.812;4.934;2022-10-13T16:56:42;14.40;99.90
15834;DHT22;8017;50.812;4.934;2022-10-13T16:59:44;14.30;99.90
15834;DHT22;8017;50.812;4.934;2022-10-13T17:02:46;14.40;99.90
15834;DHT22;8017;50.812;4.934;2022-10-13T17:05:50;14.30;99.90
15834;DHT22;8017;50.812;4.934;2022-10-13T17:08:52;14.30;99.90
15834;DHT22;8017;50.812;4.934;2022-10-13T17:11:56;14.20;99.90
15834;DHT22;8017;50.812;4.934;2022-10-13T17:14:59;14.20;99.90
15834;DHT22;8017;50.812;4.934;2022-10-13T17:18:00;14.10;99.90
15834;DHT22;8017;50.812;4.934;2022-10-13T17:21:05;14.10;99.90
15834;DHT22;8017;50.812;4.934;2022-10-13T17:24:08;14.10;99.90
15834;DHT22;8017;50.812;4.934;2022-10-13T17:27:11;14.10;99.90
15834;DHT22;8017;50.812;4.934;2022-10-13T17:30:13;14.10;99.90
15834;DHT22;8017;50.812;4.934;2022-10-13T17:33:15;14.00;99.90
15834;DHT22;8017;50.812;4.934;2022-10-13T17:36:19;14.00;99.90
15834;DHT22;8017;50.812;4.934;2022-10-13T17:39:21;14.00;99.90
15834;DHT22;8017;50.812;4.934;2022-10-13T17:42:24;14.10;99.90
15834;DHT22;8017;50.812;4.934;2022-10-13T17:45:26;14.10;99.90
15834;DHT22;8017;50.812;4.934;2022-10-13T17:48:28;14.10;99.90
15834;DHT22;8017;50.812;4.934;2022-10-13T17:51:30;14.00;99.90
15834;DHT22;8017;50.812;4.934;2022-10-13T17:54:32;14.10;99.90
15834;DHT22;8017;50.812;4.934;2022-10-13T17:57:35;14.10;99.90
15834;DHT22;8017;50.812;4.934;2022-10-13T18:00:37;14.20;99.90
15834;DHT22;8017;50.812;4.934;2022-10-13T18:03:42;14.20;99.90
15834;DHT22;8017;50.812;4.934;2022-10-13T18:06:44;14.20;99.90
15834;DHT22;8017;50.812;4.934;2022-10-13T18:09:49;14.30;99.90
15834;DHT22;8017;50.812;4.934;2022-10-13T18:12:52;14.30;99.90
15834;DHT22;8017;50.812;4.934;2022-10-13T18:15:54;14.30;99.90
15834;DHT22;8017;50.812;4.934;2022-10-13T18:19:02;14.40;99.90
15834;DHT22;8017;50.812;4.934;2022-10-13T18:22:04;14.40;99.90
15834;DHT22;8017;50.812;4.934;2022-10-13T18:25:06;14.40;99.90
15834;DHT22;8017;50.812;4.934;2022-10-13T18:28:10;14.50;99.90
15834;DHT22;8017;50.812;4.934;2022-10-13T18:31:13;14.40;99.90
15834;DHT22;8017;50.812;4.934;2022-10-13T18:34:16;14.40;99.90
15834;DHT22;8017;50.812;4.934;2022-10-13T18:37:18;14.40;99.90
15834;DHT22;8017;50.812;4.934;2022-10-13T18:40:20;14.40;99.90
15834;DHT22;8017;50.812;4.934;2022-10-13T18:43:23;14.40;99.90
15834;DHT22;8017;50.812;4.934;2022-10-13T18:46:25;14.50;99.90
15834;DHT22;8017;50.812;4.934;2022-10-13T18:49:27;14.50;99.90
15834;DHT22;8017;50.812;4.934;2022-10-13T18:52:32;14.40;99.90
15834;DHT22;8017;50.812;4.934;2022-10-13T18:55:34;14.30;99.90
15834;DHT22;8017;50.812;4.934;2022-10-13T18:58:38;14.20;99.90
15834;DHT22;8017;50.812;4.934;2022-10-13T19:01:40;14.30;99.90
15834;DHT22;8017;50.812;4.934;2022-10-13T19:04:43;14.30;99.90
15834;DHT22;8017;50.812;4.934;2022-10-13T19:07:45;14.20;99.90
15834;DHT22;8017;50.812;4.934;2022-10-13T19:10:47;14.30;99.90
15834;DHT22;8017;50.812;4.934;2022-10-13T19:13:51;14.20;99.90
15834;DHT22;8017;50.812;4.934;2022-10-13T19:16:53;14.20;99.90
15834;DHT22;8017;50.812;4.934;2022-10-13T19:19:55;14.30;99.90
15834;DHT22;8017;50.812;4.934;2022-10-13T19:22:57;14.30;99.90
15834;DHT22;8017;50.812;4.934;2022-10-13T19:26:04;14.30;99.90
15834;DHT22;8017;50.812;4.934;2022-10-13T19:29:09;14.40;99.90
15834;DHT22;8017;50.812;4.934;2022-10-13T19:32:11;14.30;99.90
15834;DHT22;8017;50.812;4.934;2022-10-13T19:35:13;14.30;99.90
15834;DHT22;8017;50.812;4.934;2022-10-13T19:38:15;14.40;99.90
15834;DHT22;8017;50.812;4.934;2022-10-13T19:41:17;14.30;99.90
15834;DHT22;8017;50.812;4.934;2022-10-13T19:44:22;14.30;99.90
15834;DHT22;8017;50.812;4.934;2022-10-13T19:47:24;14.30;99.90